Time;durP1;ratioP1;P1;durP2;ratioP2;P2;SDS_P1;SDS_P2;PMS_P1;PMS_P2;Temp;Humidity;BMP_temperature;BMP_pressure;BME280_temperature;BME280_humidity;BME280_pressure;Samples;Min_cycle;Max_cycle;Signal;HPM_P1;HPM_P2
2023/07/11 00:00:43;;;;;;;2.22;1.00;;;16.80;99.90;;;;;;5019940;28;20503;-93
2023/07/11 00:03:10;;;;;;;2.80;1.10;;;16.80;99.90;;;;;;5035505;28;20094;-93
2023/07/11 00:05:37;;;;;;;1.92;1.30;;;16.80;99.90;;;;;;5019800;28;20051;-93
2023/07/11 00:08:03;;;;;;;2.35;1.10;;;16.80;99.90;;;;;;5030649;28;20472;-93
2023/07/11 00:10:29;;;;;;;3.92;1.20;;;16.90;99.90;;;;;;5043662;28;20071;-94
2023/07/11 00:12:55;;;;;;;2.30;1.38;;;16.90;99.90;;;;;;5059571;28;20060;-94
2023/07/11 00:15:21;;;;;;;4.68;1.25;;;16.90;99.90;;;;;;5042670;28;20055;-93
2023/07/11 00:17:48;;;;;;;2.03;1.15;;;16.90;99.90;;;;;;5050612;28;20029;-93
2023/07/11 00:20:15;;;;;;;3.15;1.13;;;16.90;99.90;;;;;;5049864;28;20033;-93
2023/07/11 00:22:43;;;;;;;1.80;1.00;;;16.90;99.90;;;;;;5021027;28;20120;-93
2023/07/11 00:25:09;;;;;;;3.10;1.20;;;16.90;99.90;;;;;;5026445;28;20044;-93
2023/07/11 00:27:35;;;;;;;1.95;1.10;;;16.90;99.90;;;;;;5034679;28;20124;-93
2023/07/11 00:30:02;;;;;;;4.50;1.10;;;16.90;99.90;;;;;;5033473;28;20067;-93
2023/07/11 00:32:28;;;;;;;3.72;1.63;;;17.00;99.90;;;;;;5029920;28;20045;-93
2023/07/11 00:34:54;;;;;;;4.47;1.20;;;17.00;99.90;;;;;;5029156;28;20076;-93
2023/07/11 00:37:20;;;;;;;2.75;1.23;;;17.00;99.90;;;;;;5024722;28;20052;-93
2023/07/11 00:39:46;;;;;;;3.22;1.10;;;16.90;99.90;;;;;;5019201;28;20399;-93
2023/07/11 00:42:12;;;;;;;2.17;0.90;;;16.90;99.90;;;;;;5035069;28;20048;-93
2023/07/11 00:44:57;;;;;;;3.97;1.30;;;16.90;99.90;;;;;;5034279;28;20029;-93
2023/07/11 00:47:27;;;;;;;3.85;1.27;;;16.90;99.90;;;;;;5035183;28;20120;-93
2023/07/11 00:50:06;;;;;;;2.88;1.15;;;16.90;99.90;;;;;;5018939;28;20590;-93
2023/07/11 00:52:35;;;;;;;3.40;1.20;;;17.00;99.90;;;;;;5034922;28;20456;-93
2023/07/11 00:55:05;;;;;;;2.55;1.05;;;17.00;99.90;;;;;;5021117;28;20052;-93
2023/07/11 00:57:34;;;;;;;2.80;1.25;;;17.00;99.90;;;;;;5035112;28;20043;-92
2023/07/11 01:00:00;;;;;;;3.83;1.40;;;17.00;99.90;;;;;;5034332;28;20041;-93
2023/07/11 01:02:27;;;;;;;2.80;1.40;;;17.00;99.90;;;;;;5033706;28;20108;-94
2023/07/11 01:04:53;;;;;;;3.00;1.17;;;17.00;99.90;;;;;;5039399;28;20403;-93
2023/07/11 01:07:24;;;;;;;3.15;1.40;;;17.00;99.90;;;;;;5011097;28;20060;-92
2023/07/11 01:09:50;;;;;;;2.50;1.00;;;17.00;99.90;;;;;;5039524;28;20040;-92
2023/07/11 01:12:17;;;;;;;1.50;0.80;;;17.00;99.90;;;;;;5024309;28;20048;-94
2023/07/11 01:14:45;;;;;;;4.25;1.30;;;17.00;99.90;;;;;;5038749;28;20060;-93
2023/07/11 01:17:25;;;;;;;2.50;1.13;;;17.00;99.90;;;;;;5039382;28;20045;-92
2023/07/11 01:19:51;;;;;;;5.18;1.50;;;17.00;99.90;;;;;;5033612;28;20037;-93
2023/07/11 01:22:17;;;;;;;2.20;1.00;;;17.00;99.90;;;;;;5025840;28;20041;-93
2023/07/11 01:24:43;;;;;;;3.63;1.17;;;17.00;99.90;;;;;;5020359;28;21254;-93
2023/07/11 01:27:08;;;;;;;2.30;1.02;;;17.00;99.90;;;;;;5036846;28;20037;-92
2023/07/11 01:29:34;;;;;;;3.67;1.50;;;17.00;99.90;;;;;;5019649;28;20045;-93
2023/07/11 01:32:00;;;;;;;4.18;1.10;;;17.00;99.90;;;;;;5034838;28;20080;-93
2023/07/11 01:34:26;;;;;;;2.17;1.00;;;17.00;99.90;;;;;;5016653;28;20477;-93
2023/07/11 01:36:52;;;;;;;3.00;1.08;;;17.00;99.90;;;;;;5022583;28;20046;-93
2023/07/11 01:39:18;;;;;;;3.60;0.95;;;17.00;99.90;;;;;;5002819;28;20056;-93
2023/07/11 01:41:44;;;;;;;2.25;0.90;;;17.00;99.90;;;;;;5033945;28;20063;-93
2023/07/11 01:44:13;;;;;;;4.13;1.15;;;17.00;99.90;;;;;;5018336;28;20097;-94
2023/07/11 01:46:39;;;;;;;2.80;1.10;;;17.00;99.90;;;;;;5025162;28;20643;-93
2023/07/11 01:49:04;;;;;;;2.75;1.30;;;17.10;99.90;;;;;;5038073;28;20135;-93
2023/07/11 01:51:31;;;;;;;2.65;1.13;;;17.00;99.90;;;;;;5017705;28;20077;-93
2023/07/11 01:53:57;;;;;;;3.58;1.10;;;17.00;99.90;;;;;;5017335;28;20043;-92
2023/07/11 01:56:22;;;;;;;2.00;0.90;;;17.00;99.90;;;;;;5037230;28;20120;-93
2023/07/11 01:58:48;;;;;;;4.93;1.60;;;17.00;99.90;;;;;;5021324;28;20115;-93
2023/07/11 02:01:14;;;;;;;4.82;1.40;;;17.00;99.90;;;;;;5037074;28;20044;-93
2023/07/11 02:03:40;;;;;;;2.65;1.27;;;17.00;99.90;;;;;;5037355;28;20128;-93
2023/07/11 02:06:06;;;;;;;2.47;1.45;;;17.00;99.90;;;;;;5019649;28;20400;-93
2023/07/11 02:08:31;;;;;;;2.83;1.52;;;17.10;99.90;;;;;;5037996;28;20041;-91
2023/07/11 02:10:57;;;;;;;6.38;1.88;;;17.00;99.90;;;;;;5019840;28;20388;-92
2023/07/11 02:13:23;;;;;;;3.22;1.42;;;17.00;99.90;;;;;;5020976;28;20048;-93
2023/07/11 02:15:49;;;;;;;3.15;1.45;;;17.10;99.90;;;;;;5023297;28;20045;-92
2023/07/11 02:18:15;;;;;;;4.95;1.90;;;17.00;99.90;;;;;;5006013;28;20044;-92
2023/07/11 02:20:43;;;;;;;4.03;1.90;;;16.90;99.90;;;;;;5008205;28;20045;-92
2023/07/11 02:23:10;;;;;;;5.05;1.83;;;16.90;99.90;;;;;;5023815;28;20045;-92
2023/07/11 02:25:36;;;;;;;3.90;1.65;;;16.80;99.90;;;;;;5037508;28;20090;-93
2023/07/11 02:28:03;;;;;;;3.13;1.67;;;16.80;99.90;;;;;;5024528;28;20073;-92
2023/07/11 02:30:28;;;;;;;4.53;1.60;;;16.80;99.90;;;;;;5028067;28;20033;-92
2023/07/11 02:32:54;;;;;;;3.58;1.73;;;16.70;99.90;;;;;;5014144;28;20514;-92
2023/07/11 02:35:20;;;;;;;3.42;1.40;;;16.70;99.90;;;;;;5019569;28;20085;-92
2023/07/11 02:37:46;;;;;;;3.33;1.33;;;16.70;99.90;;;;;;5014460;28;20134;-92
2023/07/11 02:40:11;;;;;;;3.42;1.73;;;16.70;99.90;;;;;;5017425;28;20029;-91
2023/07/11 02:42:37;;;;;;;3.20;1.42;;;16.70;99.90;;;;;;5023850;28;20043;-92
2023/07/11 02:45:03;;;;;;;1.98;1.20;;;16.60;99.90;;;;;;5019685;28;20069;-93
2023/07/11 02:47:29;;;;;;;5.18;2.13;;;16.60;99.90;;;;;;5021247;28;20044;-92
2023/07/11 02:49:54;;;;;;;3.33;1.60;;;16.60;99.90;;;;;;5014574;28;20037;-92
2023/07/11 02:52:20;;;;;;;2.28;1.55;;;16.50;99.90;;;;;;5027393;28;20041;-91
2023/07/11 02:54:46;;;;;;;3.88;1.60;;;16.50;99.90;;;;;;5014045;28;20045;-93
2023/07/11 02:57:12;;;;;;;2.67;1.40;;;16.50;99.90;;;;;;5017389;28;20095;-92
2023/07/11 02:59:37;;;;;;;2.90;1.30;;;16.50;99.90;;;;;;5018037;28;20029;-92
2023/07/11 03:02:04;;;;;;;3.45;1.38;;;16.50;99.90;;;;;;5019284;28;20071;-93
2023/07/11 03:04:31;;;;;;;3.10;1.30;;;16.50;99.90;;;;;;5036684;28;20056;-93
2023/07/11 03:06:57;;;;;;;2.72;1.50;;;16.50;99.90;;;;;;5035858;28;20128;-93
2023/07/11 03:09:25;;;;;;;2.10;1.40;;;16.40;99.90;;;;;;5036543;28;20041;-92
2023/07/11 03:11:51;;;;;;;4.85;1.50;;;16.40;99.90;;;;;;5032690;28;20534;-92
2023/07/11 03:14:18;;;;;;;3.30;1.53;;;16.40;99.90;;;;;;5031779;28;20147;-92
2023/07/11 03:16:44;;;;;;;5.13;2.08;;;16.40;99.90;;;;;;5027022;28;20041;-93
2023/07/11 03:19:10;;;;;;;4.32;1.60;;;16.40;99.90;;;;;;5013090;28;20068;-92
2023/07/11 03:21:36;;;;;;;3.60;1.70;;;16.40;99.90;;;;;;5003141;28;20033;-92
2023/07/11 03:24:01;;;;;;;7.15;2.20;;;16.40;99.90;;;;;;5019427;28;20047;-92
2023/07/11 03:26:27;;;;;;;4.47;1.65;;;16.40;99.90;;;;;;5014145;28;20041;-92
2023/07/11 03:28:53;;;;;;;5.22;1.80;;;16.40;99.90;;;;;;5014225;28;20518;-92
2023/07/11 03:31:20;;;;;;;4.15;1.50;;;16.40;99.90;;;;;;5018271;28;20133;-92
2023/07/11 03:33:49;;;;;;;3.95;1.50;;;16.40;99.90;;;;;;5024319;28;20128;-92
2023/07/11 03:36:14;;;;;;;2.08;1.33;;;16.40;99.90;;;;;;5021266;28;20079;-93
2023/07/11 03:38:40;;;;;;;4.20;1.38;;;16.40;99.90;;;;;;5033290;28;20073;-93
2023/07/11 03:41:06;;;;;;;3.60;2.00;;;16.30;99.90;;;;;;5027288;28;20033;-93
2023/07/11 03:43:32;;;;;;;3.53;1.42;;;16.40;99.90;;;;;;5024746;28;20682;-93
2023/07/11 03:45:57;;;;;;;3.20;1.50;;;16.40;99.90;;;;;;5018131;28;20082;-93
2023/07/11 03:48:23;;;;;;;2.28;1.27;;;16.40;99.90;;;;;;5009570;28;20029;-92
2023/07/11 03:50:49;;;;;;;4.07;1.40;;;16.50;99.90;;;;;;5015620;28;20128;-93
2023/07/11 03:53:15;;;;;;;3.38;1.50;;;16.50;99.90;;;;;;5003927;28;20041;-93
2023/07/11 03:55:44;;;;;;;6.00;1.80;;;16.50;99.90;;;;;;5016746;28;20044;-93
2023/07/11 03:58:10;;;;;;;4.07;1.40;;;16.50;99.90;;;;;;5019230;28;20053;-92
2023/07/11 04:00:36;;;;;;;3.37;1.20;;;16.50;99.90;;;;;;5032806;28;20104;-92
2023/07/11 04:03:01;;;;;;;3.17;1.40;;;16.50;99.90;;;;;;5013214;28;20048;-92
2023/07/11 04:05:28;;;;;;;2.75;1.17;;;16.50;99.90;;;;;;5028033;28;20044;-92
2023/07/11 04:07:54;;;;;;;2.72;1.35;;;16.60;99.90;;;;;;5035220;28;20048;-92
2023/07/11 04:10:20;;;;;;;4.00;1.60;;;16.60;99.90;;;;;;4998288;28;20516;-92
2023/07/11 04:12:46;;;;;;;3.03;1.30;;;16.70;99.90;;;;;;5025734;28;20041;-92
2023/07/11 04:15:13;;;;;;;3.03;1.40;;;16.70;99.90;;;;;;5020482;28;20039;-93
2023/07/11 04:17:39;;;;;;;4.38;1.23;;;16.80;99.90;;;;;;5032509;28;20044;-93
2023/07/11 04:20:05;;;;;;;2.83;1.27;;;16.90;99.90;;;;;;5009619;28;20103;-93
2023/07/11 04:22:31;;;;;;;3.38;1.55;;;16.90;99.90;;;;;;5012745;28;20037;-93
2023/07/11 04:24:57;;;;;;;3.25;1.45;;;17.00;99.90;;;;;;5014463;28;20365;-93
2023/07/11 04:27:24;;;;;;;3.65;1.38;;;17.00;99.90;;;;;;5034928;28;20480;-93
2023/07/11 04:29:50;;;;;;;5.03;1.85;;;17.10;99.90;;;;;;5031382;28;20075;-92
2023/07/11 04:32:16;;;;;;;3.30;1.30;;;17.10;99.90;;;;;;5029733;28;20045;-92
2023/07/11 04:34:42;;;;;;;5.97;1.48;;;17.20;99.90;;;;;;5026424;28;20048;-91
2023/07/11 04:37:08;;;;;;;3.30;1.38;;;17.60;99.90;;;;;;5028637;28;20041;-93
2023/07/11 04:39:34;;;;;;;2.53;1.40;;;17.30;99.90;;;;;;4999924;28;20119;-92
2023/07/11 04:41:59;;;;;;;2.25;1.50;;;17.30;99.90;;;;;;5039545;28;20044;-92
2023/07/11 04:44:26;;;;;;;3.00;1.30;;;17.40;99.90;;;;;;5019876;28;20123;-92
2023/07/11 04:46:52;;;;;;;4.20;1.35;;;17.40;99.90;;;;;;5034285;28;20037;-92
2023/07/11 04:49:17;;;;;;;3.20;1.40;;;17.50;99.90;;;;;;5017343;28;20045;-92
2023/07/11 04:51:43;;;;;;;3.78;1.38;;;17.50;99.90;;;;;;5019241;28;20073;-91
2023/07/11 04:54:09;;;;;;;2.92;1.77;;;17.50;99.90;;;;;;5008660;28;20096;-89
2023/07/11 04:56:38;;;;;;;3.45;1.40;;;17.50;99.90;;;;;;5038178;28;20111;-88
2023/07/11 04:59:04;;;;;;;3.28;1.50;;;17.60;99.90;;;;;;5034791;28;20472;-90
2023/07/11 05:01:30;;;;;;;3.33;1.73;;;17.60;99.90;;;;;;5018591;28;20037;-88
2023/07/11 05:03:56;;;;;;;4.70;1.63;;;17.50;99.90;;;;;;5033636;28;20072;-89
2023/07/11 05:06:22;;;;;;;4.50;1.75;;;17.60;99.90;;;;;;5033311;28;20069;-89
2023/07/11 05:08:48;;;;;;;2.22;1.08;;;17.50;99.90;;;;;;5017908;28;20052;-89
2023/07/11 05:11:16;;;;;;;4.18;1.70;;;17.40;99.90;;;;;;5012016;28;20041;-89
2023/07/11 05:13:44;;;;;;;5.15;1.40;;;17.50;99.90;;;;;;5038212;28;20090;-90
2023/07/11 05:16:13;;;;;;;2.97;1.63;;;17.50;99.90;;;;;;5034157;28;20052;-91
2023/07/11 05:18:40;;;;;;;3.08;1.50;;;17.60;99.90;;;;;;5038176;28;20594;-89
2023/07/11 05:21:10;;;;;;;3.10;1.63;;;17.80;99.90;;;;;;5013082;28;20116;-90
2023/07/11 05:23:37;;;;;;;2.53;1.52;;;18.00;99.90;;;;;;5038168;28;20084;-92
2023/07/11 05:26:03;;;;;;;3.58;1.23;;;18.10;99.90;;;;;;5030369;28;20040;-91
2023/07/11 05:28:32;;;;;;;7.77;1.90;;;18.20;99.90;;;;;;5036785;28;20120;-90
2023/07/11 05:31:01;;;;;;;2.83;1.75;;;18.40;99.90;;;;;;5024217;28;20037;-89
2023/07/11 05:33:27;;;;;;;3.00;1.50;;;18.60;99.90;;;;;;5009945;28;20045;-88
2023/07/11 05:36:25;;;;;;;6.22;1.65;;;18.90;99.90;;;;;;5015947;28;20036;-89
2023/07/11 05:38:48;;;;;;;2.65;1.45;;;19.20;99.90;;;;;;5051673;28;20044;-88
2023/07/11 05:41:15;;;;;;;3.72;1.67;;;19.60;99.90;;;;;;5013831;28;20380;-90
2023/07/11 05:43:41;;;;;;;5.13;1.55;;;;;;;;;;5016618;28;20049;-91
2023/07/11 05:46:06;;;;;;;2.70;1.45;;;20.10;99.90;;;;;;5037883;28;20047;-88
2023/07/11 05:48:35;;;;;;;2.58;1.55;;;20.20;99.90;;;;;;5020665;28;20127;-92
2023/07/11 05:51:07;;;;;;;4.07;1.73;;;20.20;99.90;;;;;;5019592;28;20044;-91
2023/07/11 05:53:33;;;;;;;2.78;1.40;;;20.50;99.90;;;;;;5037079;28;20504;-91
2023/07/11 05:55:59;;;;;;;3.63;1.55;;;21.30;99.90;;;;;;5016845;28;20045;-91
2023/07/11 05:58:27;;;;;;;2.40;1.58;;;22.00;99.90;;;;;;5017168;28;20041;-91
2023/07/11 06:00:53;;;;;;;3.10;1.35;;;22.50;99.90;;;;;;5037671;28;20060;-94
2023/07/11 06:03:20;;;;;;;3.53;1.08;;;23.20;99.90;;;;;;5034891;28;20041;-89
2023/07/11 06:05:46;;;;;;;;;;;23.30;99.90;;;;;;5040279;28;20044;-89
2023/07/11 06:08:15;;;;;;;1.85;1.20;;;22.90;99.90;;;;;;5060942;28;19904;-90
2023/07/11 06:10:42;;;;;;;3.70;1.50;;;22.50;99.90;;;;;;5045095;28;20021;-90
2023/07/11 06:13:09;;;;;;;6.13;1.80;;;22.20;99.90;;;;;;5042298;28;20033;-89
2023/07/11 06:15:35;;;;;;;3.40;1.42;;;22.00;99.90;;;;;;5057198;28;20064;-89
2023/07/11 06:18:00;;;;;;;2.05;1.10;;;22.00;99.90;;;;;;5053551;28;20060;-89
2023/07/11 06:20:26;;;;;;;2.50;1.20;;;21.90;99.90;;;;;;5029295;28;20037;-89
2023/07/11 06:22:54;;;;;;;3.30;1.55;;;21.80;99.90;;;;;;5029083;28;20038;-90
2023/07/11 06:25:20;;;;;;;2.70;1.23;;;21.70;99.90;;;;;;5032054;28;20048;-90
2023/07/11 06:27:48;;;;;;;3.72;1.65;;;21.70;99.90;;;;;;5016755;28;20788;-91
2023/07/11 06:30:14;;;;;;;3.72;1.50;;;22.40;99.90;;;;;;5015752;28;20090;-88
2023/07/11 06:32:40;;;;;;;4.55;1.52;;;23.80;99.90;;;;;;5032883;28;20138;-91
2023/07/11 06:35:06;;;;;;;2.53;1.07;;;25.20;99.90;;;;;;5037334;28;20090;-91
2023/07/11 06:37:34;;;;;;;2.83;1.27;;;26.60;99.90;;;;;;5013969;28;20542;-92
2023/07/11 06:40:00;;;;;;;2.40;1.20;;;27.70;99.90;;;;;;5037622;28;20598;-92
2023/07/11 06:42:26;;;;;;;3.13;1.17;;;28.50;99.90;;;;;;5020500;28;20045;-91
2023/07/11 06:44:51;;;;;;;3.70;1.30;;;29.20;99.90;;;;;;5036268;28;20041;-91
2023/07/11 06:47:20;;;;;;;4.43;1.38;;;29.80;99.90;;;;;;5018561;28;20479;-93
2023/07/11 06:49:47;;;;;;;3.03;1.17;;;30.10;99.90;;;;;;5017333;28;20041;-91
2023/07/11 06:52:12;;;;;;;3.05;1.75;;;30.10;99.90;;;;;;5010732;28;20045;-90
2023/07/11 06:54:41;;;;;;;2.35;1.23;;;30.10;99.90;;;;;;5033463;28;20120;-91
2023/07/11 06:57:07;;;;;;;2.95;1.35;;;30.00;99.90;;;;;;5026025;28;20052;-91
2023/07/11 06:59:33;;;;;;;3.73;1.23;;;29.90;99.90;;;;;;5010885;28;20045;-91
2023/07/11 07:01:58;;;;;;;3.07;1.50;;;30.00;99.90;;;;;;5009439;28;20498;-91
2023/07/11 07:04:24;;;;;;;3.53;1.35;;;30.60;99.90;;;;;;5019105;28;20127;-92
2023/07/11 07:06:50;;;;;;;3.37;1.40;;;30.90;99.90;;;;;;5019459;28;20076;-91
2023/07/11 07:09:15;;;;;;;3.60;1.20;;;30.90;99.80;;;;;;5035008;28;21021;-90
2023/07/11 07:11:41;;;;;;;4.47;1.03;;;30.80;99.10;;;;;;5017458;28;20033;-92
2023/07/11 07:14:09;;;;;;;3.95;1.20;;;30.80;98.80;;;;;;5023797;28;20472;-91
2023/07/11 07:16:37;;;;;;;5.82;1.48;;;30.40;98.10;;;;;;5036350;28;20083;-92
2023/07/11 07:19:05;;;;;;;2.28;1.13;;;30.00;97.90;;;;;;5032781;28;20071;-90
2023/07/11 07:21:31;;;;;;;4.88;1.00;;;29.40;97.60;;;;;;5036121;28;20037;-92
2023/07/11 07:23:57;;;;;;;3.60;1.48;;;29.00;97.70;;;;;;5020268;28;20051;-92
2023/07/11 07:26:23;;;;;;;3.33;1.58;;;29.10;97.90;;;;;;5033795;28;20255;-92
2023/07/11 07:28:48;;;;;;;3.00;1.52;;;29.50;97.80;;;;;;5039372;28;20028;-91
2023/07/11 07:31:14;;;;;;;3.88;1.13;;;29.60;97.30;;;;;;5032948;28;20068;-90
2023/07/11 07:34:11;;;;;;;3.28;1.40;;;29.90;97.00;;;;;;5034282;28;20275;-91
2023/07/11 07:36:40;;;;;;;2.40;1.10;;;29.80;96.80;;;;;;5048823;28;20036;-91
2023/07/11 07:39:56;;;;;;;2.90;1.40;;;29.40;97.00;;;;;;5050426;28;20052;-91
2023/07/11 07:42:21;;;;;;;3.13;1.33;;;28.80;94.50;;;;;;5036423;28;20049;-91
2023/07/11 07:44:47;;;;;;;2.85;1.20;;;28.20;97.00;;;;;;5014727;28;20041;-91
2023/07/11 07:47:13;;;;;;;1.88;1.10;;;27.80;97.60;;;;;;5031624;28;20737;-90
2023/07/11 07:49:38;;;;;;;4.00;1.20;;;27.40;97.90;;;;;;4994637;28;20041;-91
2023/07/11 07:52:05;;;;;;;4.80;1.30;;;27.10;98.20;;;;;;5014149;28;20483;-90
2023/07/11 07:54:30;;;;;;;2.38;1.38;;;26.90;98.60;;;;;;5015248;28;20045;-90
2023/07/11 07:56:56;;;;;;;2.63;1.63;;;26.60;98.80;;;;;;5022929;28;20047;-90
2023/07/11 07:59:22;;;;;;;2.30;1.00;;;26.40;99.50;;;;;;5016722;28;20032;-91
2023/07/11 08:01:47;;;;;;;3.30;1.10;;;26.10;99.90;;;;;;5010177;28;20099;-90
2023/07/11 08:04:13;;;;;;;3.60;1.20;;;25.90;99.90;;;;;;5024072;28;20636;-91
2023/07/11 08:06:39;;;;;;;2.80;1.30;;;25.60;99.90;;;;;;5011503;28;20073;-91
2023/07/11 08:09:07;;;;;;;3.55;1.20;;;25.50;99.90;;;;;;5013428;28;20071;-90
2023/07/11 08:11:33;;;;;;;4.67;1.13;;;25.50;99.90;;;;;;5013837;28;20068;-90
2023/07/11 08:13:59;;;;;;;3.20;1.10;;;25.60;99.90;;;;;;5013552;28;20084;-91
2023/07/11 08:16:25;;;;;;;4.00;1.13;;;25.80;99.90;;;;;;5017824;28;20046;-90
2023/07/11 08:18:51;;;;;;;2.78;0.90;;;26.20;99.90;;;;;;5022650;28;20056;-89
2023/07/11 08:21:18;;;;;;;3.08;1.33;;;26.40;99.90;;;;;;5012587;28;20091;-91
2023/07/11 08:23:44;;;;;;;2.37;1.07;;;26.50;99.90;;;;;;5015667;28;20041;-91
2023/07/11 08:26:10;;;;;;;3.37;1.10;;;26.50;99.90;;;;;;5012784;28;20049;-90
2023/07/11 08:28:36;;;;;;;1.65;0.98;;;26.50;99.90;;;;;;5018012;28;20040;-90
2023/07/11 08:31:04;;;;;;;2.72;1.30;;;26.40;99.90;;;;;;5042977;28;20421;-90
2023/07/11 08:33:30;;;;;;;1.35;1.02;;;26.30;99.90;;;;;;5015363;28;20049;-91
2023/07/11 08:35:56;;;;;;;2.45;1.10;;;26.40;99.90;;;;;;5018191;28;20171;-90
2023/07/11 08:38:23;;;;;;;2.43;0.83;;;26.40;99.90;;;;;;5005680;28;20480;-90
2023/07/11 08:40:49;;;;;;;5.30;1.42;;;26.40;99.90;;;;;;5015309;28;20048;-90
2023/07/11 08:43:21;;;;;;;3.40;1.08;;;26.60;99.90;;;;;;5016670;28;20034;-90
2023/07/11 08:45:59;;;;;;;3.22;1.40;;;26.60;99.90;;;;;;5035375;28;20071;-90
2023/07/11 08:48:46;;;;;;;2.38;0.90;;;26.50;99.90;;;;;;5028364;28;20033;-91
2023/07/11 08:51:32;;;;;;;1.77;0.95;;;26.40;99.90;;;;;;5044875;28;20476;-90
2023/07/11 08:54:10;;;;;;;2.75;1.10;;;26.40;99.90;;;;;;5042172;28;20410;-90
2023/07/11 08:56:39;;;;;;;3.50;1.13;;;26.30;99.90;;;;;;5055883;28;20025;-90
2023/07/11 08:59:29;;;;;;;5.60;1.10;;;26.60;99.90;;;;;;5054996;28;20034;-91
2023/07/11 09:02:16;;;;;;;2.60;0.93;;;27.80;99.90;;;;;;5051103;28;20102;-89
2023/07/11 09:04:52;;;;;;;4.60;0.93;;;28.70;99.90;;;;;;5051280;28;20041;-89
2023/07/11 09:07:42;;;;;;;3.20;1.05;;;29.00;99.90;;;;;;5041263;28;20543;-90
2023/07/11 09:13:50;;;;;;;2.42;1.20;;;28.60;99.90;;;;;;5043431;28;20037;-90
2023/07/11 09:16:21;;;;;;;1.88;1.20;;;28.20;99.90;;;;;;5013875;28;20083;-91
2023/07/11 09:19:14;;;;;;;3.17;1.00;;;28.30;99.90;;;;;;5013347;28;20045;-86
2023/07/11 09:21:54;;;;;;;2.10;1.17;;;28.70;99.90;;;;;;5020360;28;20124;-90
2023/07/11 09:24:34;;;;;;;4.57;1.10;;;29.20;99.90;;;;;;5017157;28;20124;-91
2023/07/11 09:27:21;;;;;;;1.75;0.82;;;29.00;99.50;;;;;;5016161;28;20537;-90
2023/07/11 09:29:48;;;;;;;1.67;0.80;;;28.70;99.90;;;;;;5019670;28;20095;-91
2023/07/11 09:32:16;;;;;;;3.92;1.17;;;28.30;99.90;;;;;;5013349;28;20053;-91
2023/07/11 09:34:51;;;;;;;2.58;0.90;;;28.10;99.90;;;;;;5013307;28;20508;-90
2023/07/11 09:37:31;;;;;;;2.58;1.02;;;27.90;99.90;;;;;;5020763;28;20083;-91
2023/07/11 09:40:24;;;;;;;2.22;1.10;;;27.70;99.70;;;;;;5018834;28;20052;-91
2023/07/11 09:42:52;;;;;;;3.25;1.10;;;27.60;98.60;;;;;;5014180;28;20527;-91
2023/07/11 09:45:22;;;;;;;3.35;1.10;;;27.60;99.90;;;;;;5026070;28;20045;-91
2023/07/11 09:47:55;;;;;;;3.58;0.93;;;27.60;99.70;;;;;;5032785;28;20514;-91
2023/07/11 09:50:43;;;;;;;4.85;1.20;;;27.90;99.90;;;;;;5037652;28;20040;-91
2023/07/11 09:53:19;;;;;;;3.50;1.10;;;28.40;99.70;;;;;;5057479;28;20096;-90
2023/07/11 09:55:46;;;;;;;2.30;0.77;;;28.70;99.20;;;;;;5036099;28;20041;-90
2023/07/11 09:58:16;;;;;;;2.00;0.90;;;28.90;99.20;;;;;;5036097;28;20041;-91
2023/07/11 10:00:50;;;;;;;1.67;0.70;;;29.10;97.70;;;;;;5034199;28;20045;-91
2023/07/11 10:03:25;;;;;;;2.80;0.88;;;29.30;95.80;;;;;;5030988;28;20450;-91
2023/07/11 10:05:52;;;;;;;2.65;0.80;;;29.40;96.10;;;;;;5035788;28;20072;-90
2023/07/11 10:08:26;;;;;;;2.30;0.70;;;29.50;97.10;;;;;;5035019;28;20120;-89
2023/07/11 10:10:55;;;;;;;2.17;0.77;;;29.60;96.20;;;;;;5034983;28;20051;-88
2023/07/11 10:13:22;;;;;;;3.33;0.80;;;29.60;95.20;;;;;;5030290;28;20732;-93
2023/07/11 10:15:53;;;;;;;2.60;0.90;;;29.60;94.90;;;;;;5037288;28;20389;-92
2023/07/11 10:18:30;;;;;;;2.67;0.65;;;29.50;94.90;;;;;;5034677;28;20124;-90
2023/07/11 10:21:00;;;;;;;2.47;1.08;;;29.40;95.10;;;;;;5035853;28;20073;-90
2023/07/11 10:23:27;;;;;;;2.28;0.88;;;29.40;94.90;;;;;;5037696;28;20051;-90
2023/07/11 10:26:04;;;;;;;3.22;0.73;;;29.20;94.60;;;;;;5019268;28;20071;-89
2023/07/11 10:28:38;;;;;;;2.22;0.95;;;29.10;93.70;;;;;;5032548;28;20037;-92
2023/07/11 10:31:28;;;;;;;2.85;0.93;;;29.00;93.60;;;;;;5036458;28;20068;-90
2023/07/11 10:34:02;;;;;;;1.40;0.68;;;29.00;93.40;;;;;;5030114;28;20124;-89
2023/07/11 10:36:56;;;;;;;2.33;0.75;;;29.00;94.30;;;;;;5036452;28;20053;-90
2023/07/11 10:39:27;;;;;;;2.75;0.80;;;28.90;94.00;;;;;;5043859;28;20041;-90
2023/07/11 10:42:31;;;;;;;2.17;1.00;;;29.00;94.40;;;;;;5036589;28;20041;-90
2023/07/11 10:45:27;;;;;;;2.70;0.82;;;29.00;93.60;;;;;;5014242;28;20048;-91
2023/07/11 10:47:56;;;;;;;3.78;1.10;;;28.90;94.20;;;;;;5020292;28;20049;-91
2023/07/11 10:50:41;;;;;;;3.45;1.05;;;28.90;94.90;;;;;;5047151;28;20044;-93
2023/07/11 10:53:28;;;;;;;3.33;1.00;;;28.90;93.90;;;;;;5037274;28;20044;-91
2023/07/11 10:56:21;;;;;;;2.75;0.95;;;28.80;93.80;;;;;;5053189;28;20036;-90
2023/07/11 10:58:48;;;;;;;7.25;0.98;;;28.70;93.50;;;;;;5033378;28;20630;-91
2023/07/11 11:01:42;;;;;;;1.55;0.70;;;28.60;94.30;;;;;;5032249;28;20045;-91
2023/07/11 11:04:36;;;;;;;2.80;1.00;;;28.50;93.50;;;;;;5031724;28;20037;-91
2023/07/11 11:07:23;;;;;;;3.53;1.02;;;28.50;94.70;;;;;;5041745;28;20045;-91
2023/07/11 11:09:52;;;;;;;4.05;0.85;;;28.40;93.90;;;;;;5030882;28;20056;-90
2023/07/11 11:12:28;;;;;;;2.15;0.90;;;28.40;94.50;;;;;;5052980;28;20395;-91
2023/07/11 11:15:18;;;;;;;2.00;0.80;;;28.50;94.80;;;;;;5036855;28;20538;-89
2023/07/11 11:17:50;;;;;;;1.55;0.70;;;28.50;94.60;;;;;;5034457;28;20484;-92
2023/07/11 11:20:25;;;;;;;2.75;0.93;;;28.50;94.60;;;;;;5033480;28;20033;-91
2023/07/11 11:23:21;;;;;;;2.78;0.90;;;28.50;94.60;;;;;;5025859;28;20076;-90
2023/07/11 11:26:14;;;;;;;2.00;0.90;;;28.50;94.10;;;;;;5032549;28;20063;-92
2023/07/11 11:28:50;;;;;;;5.72;1.10;;;28.50;95.40;;;;;;5035353;28;20040;-92
2023/07/11 11:31:24;;;;;;;2.85;1.00;;;28.60;95.80;;;;;;5036739;28;20510;-92
2023/07/11 11:34:11;;;;;;;4.43;1.42;;;28.70;95.70;;;;;;5035959;28;20080;-91
2023/07/11 11:37:14;;;;;;;7.10;2.05;;;28.70;95.30;;;;;;5033498;28;20052;-91
2023/07/11 11:40:04;;;;;;;3.72;1.25;;;28.80;94.90;;;;;;5037232;28;20080;-94
2023/07/11 11:42:33;;;;;;;2.95;1.08;;;28.80;94.60;;;;;;5056852;28;20067;-93
2023/07/11 11:45:07;;;;;;;3.80;1.30;;;29.00;95.70;;;;;;5059019;28;20029;-93
2023/07/11 11:47:35;;;;;;;3.80;1.00;;;29.00;95.40;;;;;;5048070;28;20112;-91
2023/07/11 11:50:02;;;;;;;2.90;1.17;;;29.10;95.30;;;;;;5052511;28;20037;-92
2023/07/11 11:52:34;;;;;;;3.08;1.30;;;29.10;95.60;;;;;;5041496;28;20053;-94
2023/07/11 11:55:00;;;;;;;3.22;0.80;;;29.00;95.00;;;;;;5011589;28;20093;-93
2023/07/11 11:57:30;;;;;;;4.47;0.90;;;28.80;95.50;;;;;;5009116;28;20037;-93
2023/07/11 11:59:59;;;;;;;2.03;0.80;;;28.60;94.80;;;;;;5029895;28;20106;-94
2023/07/11 12:02:32;;;;;;;3.30;0.88;;;28.50;95.20;;;;;;5035588;28;20037;-91
2023/07/11 12:05:13;;;;;;;1.90;0.82;;;28.40;94.70;;;;;;5035930;28;20091;-92
2023/07/11 12:07:40;;;;;;;3.33;0.85;;;28.50;93.70;;;;;;5031684;28;20719;-95
2023/07/11 12:10:14;;;;;;;1.10;0.88;;;28.60;94.50;;;;;;5026048;28;20131;-93
2023/07/11 12:12:40;;;;;;;2.92;1.00;;;28.60;94.20;;;;;;5026930;28;20119;-93
2023/07/11 12:15:12;;;;;;;4.32;0.95;;;28.60;94.20;;;;;;5034712;28;20040;-94
2023/07/11 12:17:38;;;;;;;1.98;0.90;;;28.70;93.70;;;;;;5033479;28;20123;-93
2023/07/11 12:20:07;;;;;;;2.20;0.95;;;28.80;93.70;;;;;;5034289;28;20049;-92
2023/07/11 12:22:39;;;;;;;3.00;0.90;;;28.80;93.60;;;;;;5035384;28;20061;-93
2023/07/11 12:25:16;;;;;;;2.05;0.90;;;28.70;93.90;;;;;;5025506;28;20037;-93
2023/07/11 12:27:42;;;;;;;1.92;0.90;;;28.60;94.10;;;;;;5035393;28;20041;-93
2023/07/11 12:31:02;;;;;;;8.38;1.33;;;28.60;94.30;;;;;;5027733;28;20393;-94
2023/07/11 12:33:39;;;;;;;2.35;1.10;;;28.60;93.70;;;;;;5007432;28;20037;-94
2023/07/11 12:36:31;;;;;;;3.90;1.00;;;28.60;94.30;;;;;;5009895;28;20063;-93
2023/07/11 12:39:38;;;;;;;3.40;1.25;;;28.60;94.40;;;;;;4984159;28;20526;-94
2023/07/11 12:42:16;;;;;;;1.92;1.00;;;28.60;94.60;;;;;;4968422;28;20056;-94
2023/07/11 12:44:43;;;;;;;2.60;0.98;;;28.50;95.10;;;;;;5020505;28;20045;-92
2023/07/11 12:47:16;;;;;;;4.55;1.10;;;28.40;95.30;;;;;;5051630;28;20040;-94
2023/07/11 12:49:45;;;;;;;4.07;1.15;;;28.40;95.20;;;;;;5019070;28;20051;-95
2023/07/11 12:52:14;;;;;;;2.15;1.10;;;28.30;95.40;;;;;;5017976;28;20095;-93
2023/07/11 12:54:42;;;;;;;3.50;1.13;;;28.10;95.40;;;;;;5035381;28;20045;-94
2023/07/11 12:57:14;;;;;;;3.25;1.23;;;28.00;95.60;;;;;;4989623;28;20041;-94
2023/07/11 12:59:39;;;;;;;2.72;1.15;;;28.00;95.60;;;;;;5015007;28;20454;-94
2023/07/11 13:02:06;;;;;;;3.47;1.00;;;27.90;95.70;;;;;;5005721;28;20033;-94
2023/07/11 13:04:46;;;;;;;2.80;1.25;;;27.80;95.80;;;;;;5022915;28;20067;-93
2023/07/11 13:07:17;;;;;;;4.75;1.50;;;27.70;96.00;;;;;;5038135;28;20033;-94